Time;durP1;ratioP1;P1;durP2;ratioP2;P2;SDS_P1;SDS_P2;PMS_P1;PMS_P2;Temp;Humidity;BMP_temperature;BMP_pressure;BME280_temperature;BME280_humidity;BME280_pressure;Samples;Min_cycle;Max_cycle;Signal;HPM_P1;HPM_P2
2023/08/16 00:02:14;;;;;;;3.93;2.90;;;;;;;21.60;100.00;100431.78;5010573;28;20292;-78
2023/08/16 00:04:41;;;;;;;3.23;2.93;;;;;;;21.61;100.00;100433.50;4984290;28;20205;-78
2023/08/16 00:07:07;;;;;;;4.80;2.93;;;;;;;21.60;100.00;100423.88;4986327;28;20237;-78
2023/08/16 00:09:32;;;;;;;4.13;3.27;;;;;;;21.59;100.00;100424.78;4985389;28;20771;-78
2023/08/16 00:11:58;;;;;;;3.20;2.90;;;;;;;21.52;100.00;100429.53;4984513;28;20286;-79
2023/08/16 00:14:23;;;;;;;3.07;2.57;;;;;;;21.49;100.00;100413.88;4987731;28;20209;-78
2023/08/16 00:16:48;;;;;;;2.73;2.53;;;;;;;21.44;100.00;100415.91;4983578;28;20559;-80
2023/08/16 00:19:14;;;;;;;2.73;2.53;;;;;;;21.42;100.00;100412.50;4982363;28;20220;-77
2023/08/16 00:21:40;;;;;;;3.50;2.80;;;;;;;21.35;100.00;100403.22;4982685;28;20181;-77
2023/08/16 00:24:06;;;;;;;4.53;2.70;;;;;;;21.31;100.00;100399.91;4981826;28;20780;-77
2023/08/16 00:26:31;;;;;;;3.73;2.80;;;;;;;21.27;100.00;100399.19;4976620;28;20189;-77
2023/08/16 00:28:57;;;;;;;2.73;2.53;;;;;;;21.28;100.00;100406.16;4983056;28;20196;-77
2023/08/16 00:31:22;;;;;;;2.70;2.50;;;;;;;21.29;100.00;100394.72;4982500;28;20281;-78
2023/08/16 00:33:48;;;;;;;2.87;2.27;;;;;;;21.31;100.00;100397.28;4977240;28;20708;-77
2023/08/16 00:36:14;;;;;;;2.80;2.60;;;;;;;21.33;100.00;100392.75;4977133;28;20189;-79
2023/08/16 00:38:42;;;;;;;2.33;2.20;;;;;;;21.34;100.00;100389.19;4995915;28;20193;-79
2023/08/16 00:41:11;;;;;;;2.33;2.20;;;;;;;21.35;100.00;100385.63;4982422;28;20260;-79
2023/08/16 00:43:37;;;;;;;2.80;2.60;;;;;;;21.35;100.00;100388.28;4984196;28;20213;-79
2023/08/16 00:46:04;;;;;;;3.10;2.90;;;;;;;21.37;100.00;100386.41;4986528;28;20235;-79
2023/08/16 00:48:32;;;;;;;4.60;2.67;;;;;;;21.34;100.00;100383.09;4980379;28;20184;-79
2023/08/16 00:50:58;;;;;;;3.90;2.30;;;;;;;21.35;100.00;100387.44;4982368;28;20222;-82
2023/08/16 00:53:24;;;;;;;3.00;2.77;;;;;;;21.32;100.00;100389.28;4983433;28;20217;-79
2023/08/16 00:55:50;;;;;;;3.17;2.90;;;;;;;21.30;100.00;100385.88;4984289;28;20196;-78
2023/08/16 00:58:16;;;;;;;3.83;2.50;;;;;;;21.28;100.00;100385.09;4982960;28;20252;-78
2023/08/16 01:00:41;;;;;;;3.10;2.60;;;;;;;21.25;100.00;100381.78;4979694;28;20223;-78
2023/08/16 01:03:06;;;;;;;3.60;2.80;;;;;;;21.23;100.00;100374.00;4985386;28;20224;-79
2023/08/16 01:05:32;;;;;;;3.40;3.10;;;;;;;21.22;100.00;100374.91;4997906;28;20185;-77
2023/08/16 01:07:59;;;;;;;3.20;2.90;;;;;;;21.21;100.00;100372.34;4980126;28;20607;-79
2023/08/16 01:10:44;;;;;;;3.60;3.30;;;;;;;21.17;100.00;100363.78;5000360;28;20189;-78
2023/08/16 01:13:33;;;;;;;4.13;3.10;;;;;;;21.14;100.00;100367.44;4978319;28;20215;-77
2023/08/16 01:15:59;;;;;;;3.23;2.77;;;;;;;21.12;100.00;100361.38;4981974;28;20576;-77
2023/08/16 01:18:26;;;;;;;4.20;3.43;;;;;;;21.15;100.00;100363.00;4983844;28;20188;-79
2023/08/16 01:20:53;;;;;;;3.57;3.27;;;;;;;21.13;100.00;100363.09;4981858;28;20189;-78
2023/08/16 01:23:30;;;;;;;3.53;2.70;;;;;;;21.10;100.00;100354.53;4982353;28;20215;-77
2023/08/16 01:26:31;;;;;;;3.50;2.50;;;;;;;21.12;100.00;100361.38;4982557;28;20189;-77
2023/08/16 01:28:58;;;;;;;2.93;2.50;;;;;;;21.14;100.00;100354.28;4983883;28;20304;-77
2023/08/16 01:31:24;;;;;;;5.43;2.73;;;;;;;21.21;100.00;100354.78;4984797;28;20621;-78
2023/08/16 01:33:50;;;;;;;4.07;2.77;;;;;;;21.21;100.00;100349.53;4983877;28;20228;-78
2023/08/16 01:36:15;;;;;;;2.60;2.40;;;;;;;21.25;100.00;100347.59;4982716;28;20265;-77
2023/08/16 01:38:41;;;;;;;2.73;2.53;;;;;;;21.29;100.00;100339.44;4985534;28;20192;-77
2023/08/16 01:41:28;;;;;;;3.00;2.63;;;;;;;21.29;100.00;100349.97;4988039;28;20248;-77
2023/08/16 01:43:55;;;;;;;3.00;2.70;;;;;;;21.24;100.00;100354.66;4988184;28;20294;-78
2023/08/16 01:46:22;;;;;;;3.00;2.70;;;;;;;21.20;100.00;100362.75;4988599;28;20192;-78
2023/08/16 01:48:48;;;;;;;2.80;2.60;;;;;;;21.19;100.00;100358.41;4986365;28;20613;-80
2023/08/16 01:51:14;;;;;;;3.43;2.63;;;;;;;21.16;100.00;100362.94;4989783;28;20189;-80
2023/08/16 01:53:39;;;;;;;2.87;2.50;;;;;;;21.13;100.00;100371.00;4985250;28;20292;-78
2023/08/16 01:56:05;;;;;;;3.20;2.70;;;;;;;21.09;100.00;100369.44;4989001;28;20185;-78
2023/08/16 01:58:30;;;;;;;4.57;2.73;;;;;;;21.09;100.00;100360.72;5001062;28;20680;-77
2023/08/16 02:00:56;;;;;;;3.17;2.87;;;;;;;21.05;100.00;100365.25;4985928;28;20933;-79
2023/08/16 02:03:21;;;;;;;3.03;2.73;;;;;;;21.01;100.00;100371.63;5024732;28;20219;-78
2023/08/16 02:05:46;;;;;;;5.13;3.33;;;;;;;21.02;100.00;100373.31;4990484;28;20271;-77
2023/08/16 02:08:12;;;;;;;2.60;2.40;;;;;;;20.99;100.00;100373.47;4986421;28;20199;-79
2023/08/16 02:10:37;;;;;;;3.10;2.80;;;;;;;20.97;100.00;100368.28;4986885;28;20188;-78
2023/08/16 02:13:03;;;;;;;3.53;2.80;;;;;;;20.97;100.00;100365.66;5001653;28;20215;-77
2023/08/16 02:15:28;;;;;;;3.03;2.83;;;;;;;20.99;100.00;100361.16;4987958;28;20275;-79
2023/08/16 02:17:54;;;;;;;4.40;3.13;;;;;;;21.05;100.00;100360.00;4981731;28;20220;-78
2023/08/16 02:20:20;;;;;;;2.90;2.70;;;;;;;20.99;100.00;100355.06;4983082;28;20562;-78
2023/08/16 02:22:45;;;;;;;4.20;2.70;;;;;;;20.94;100.00;100363.19;4983723;28;20181;-78
2023/08/16 02:25:13;;;;;;;2.80;2.60;;;;;;;20.92;100.00;100354.53;4986692;28;20197;-78
2023/08/16 02:27:40;;;;;;;3.40;3.10;;;;;;;20.98;100.00;100362.09;4984788;28;20185;-78
2023/08/16 02:30:06;;;;;;;3.40;3.10;;;;;;;20.97;100.00;100375.34;4986317;28;20281;-77
2023/08/16 02:32:33;;;;;;;4.17;3.40;;;;;;;20.89;100.00;100380.13;4985350;28;20205;-79
2023/08/16 02:34:59;;;;;;;4.10;3.17;;;;;;;20.78;100.00;100404.34;4986972;28;20271;-78
2023/08/16 02:37:25;;;;;;;7.20;3.23;;;;;;;20.67;100.00;100420.63;4983157;28;20213;-77
2023/08/16 02:39:50;;;;;;;5.23;3.70;;;;;;;20.61;100.00;100439.31;4986027;28;20192;-78
2023/08/16 02:42:16;;;;;;;4.37;3.97;;;;;;;20.62;100.00;100459.44;4986975;28;20196;-78
2023/08/16 02:44:41;;;;;;;4.43;4.03;;;;;;;20.65;100.00;100461.91;4986581;28;20224;-78
2023/08/16 02:47:06;;;;;;;4.60;4.20;;;;;;;20.71;100.00;100473.00;4985756;28;20193;-79
2023/08/16 02:49:32;;;;;;;4.80;4.40;;;;;;;20.73;100.00;100490.47;4986697;28;20195;-77
2023/08/16 02:51:57;;;;;;;4.33;4.03;;;;;;;20.69;100.00;100487.16;4987144;28;20205;-79
2023/08/16 02:54:22;;;;;;;4.87;4.43;;;;;;;20.68;100.00;100483.66;4986333;28;20239;-78
2023/08/16 02:56:48;;;;;;;5.17;4.63;;;;;;;20.71;100.00;100487.94;4984511;28;20680;-78
2023/08/16 02:59:14;;;;;;;5.13;4.73;;;;;;;20.68;100.00;100475.75;4980053;28;20211;-77
2023/08/16 03:01:40;;;;;;;3.93;3.70;;;;;;;20.69;100.00;100489.78;4983615;28;20197;-78
2023/08/16 03:04:06;;;;;;;5.30;4.77;;;;;;;20.71;100.00;100483.50;5001926;28;20212;-78
2023/08/16 03:06:31;;;;;;;5.13;4.73;;;;;;;20.73;100.00;100493.94;4988193;28;20282;-79
2023/08/16 03:08:56;;;;;;;4.40;4.10;;;;;;;20.77;100.00;100498.16;4984449;28;20200;-79
2023/08/16 03:11:22;;;;;;;4.17;3.87;;;;;;;20.82;100.00;100519.84;4986961;28;20251;-79
2023/08/16 03:13:47;;;;;;;4.00;3.70;;;;;;;20.86;100.00;100518.78;4986272;28;20234;-79
2023/08/16 03:16:12;;;;;;;4.00;3.70;;;;;;;20.90;100.00;100519.47;4986697;28;20197;-79
2023/08/16 03:18:38;;;;;;;3.83;3.53;;;;;;;20.93;100.00;100511.44;5001271;28;20240;-78
2023/08/16 03:21:03;;;;;;;3.80;3.50;;;;;;;20.96;100.00;100518.31;4983592;28;20217;-78
2023/08/16 03:23:28;;;;;;;4.03;3.63;;;;;;;20.97;100.00;100507.72;4986043;28;20696;-78
2023/08/16 03:25:54;;;;;;;4.10;3.80;;;;;;;20.98;100.00;100491.00;4984835;28;20223;-78
2023/08/16 03:28:19;;;;;;;4.20;3.67;;;;;;;20.99;100.00;100482.19;4984820;28;20197;-80
2023/08/16 03:30:44;;;;;;;4.27;3.87;;;;;;;20.97;100.00;100468.25;4974571;28;20194;-78
2023/08/16 03:33:10;;;;;;;4.83;3.93;;;;;;;20.98;100.00;100454.16;4987834;28;20713;-78
2023/08/16 03:35:35;;;;;;;4.20;3.80;;;;;;;20.98;100.00;100440.19;5001345;28;20188;-79
2023/08/16 03:38:00;;;;;;;4.70;4.20;;;;;;;20.94;100.00;100444.75;4986595;28;20262;-78
2023/08/16 03:40:26;;;;;;;4.93;3.77;;;;;;;20.91;100.00;100437.00;4985890;28;20239;-78
2023/08/16 03:42:51;;;;;;;4.30;3.57;;;;;;;20.83;100.00;100431.25;4976565;28;20188;-78
2023/08/16 03:45:16;;;;;;;3.77;3.43;;;;;;;20.77;100.00;100437.69;4983480;28;20573;-79
2023/08/16 03:47:43;;;;;;;3.67;3.37;;;;;;;20.73;100.00;100417.69;4984242;28;20665;-79
2023/08/16 03:50:08;;;;;;;3.70;3.40;;;;;;;20.72;100.00;100400.22;4983552;28;20197;-79
2023/08/16 03:52:34;;;;;;;3.50;3.17;;;;;;;20.66;100.00;100395.25;4982980;28;20220;-78
2023/08/16 03:54:59;;;;;;;3.43;3.17;;;;;;;20.65;100.00;100383.03;4987120;28;20331;-78
2023/08/16 03:57:24;;;;;;;3.80;3.10;;;;;;;20.64;100.00;100355.03;4986744;28;20197;-78
2023/08/16 03:59:52;;;;;;;4.33;3.40;;;;;;;20.63;100.00;100343.69;4992989;28;20937;-79
2023/08/16 04:02:19;;;;;;;6.77;4.27;;;;;;;20.62;100.00;100335.84;4990642;28;20211;-79
2023/08/16 04:04:45;;;;;;;8.10;4.70;;;;;;;20.59;100.00;100325.47;4999279;28;20219;-78
2023/08/16 04:07:10;;;;;;;5.30;4.87;;;;;;;20.55;100.00;100314.28;4985388;28;20284;-79
2023/08/16 04:09:36;;;;;;;6.40;5.70;;;;;;;20.44;100.00;100330.59;4985130;28;20268;-77
2023/08/16 04:12:01;;;;;;;6.33;5.63;;;;;;;20.49;100.00;100354.03;4985721;28;20204;-80
2023/08/16 04:14:26;;;;;;;5.40;5.00;;;;;;;20.44;100.00;100354.25;5006627;28;20244;-77
2023/08/16 04:16:52;;;;;;;5.57;5.07;;;;;;;20.45;100.00;100323.56;4988666;28;20196;-79
2023/08/16 04:19:17;;;;;;;5.47;4.97;;;;;;;20.49;100.00;100310.19;4988004;28;20212;-77
2023/08/16 04:21:42;;;;;;;5.30;4.07;;;;;;;20.50;100.00;100309.25;4982649;28;20185;-79
2023/08/16 04:24:08;;;;;;;5.20;3.90;;;;;;;20.49;100.00;100302.28;4985830;28;20269;-78
2023/08/16 04:26:33;;;;;;;5.03;3.93;;;;;;;20.52;100.00;100307.41;4982186;28;20362;-78
2023/08/16 04:28:58;;;;;;;5.53;4.00;;;;;;;20.51;100.00;100308.34;5002354;28;20192;-78
2023/08/16 04:31:24;;;;;;;6.77;4.10;;;;;;;20.54;100.00;100316.06;4998697;28;20200;-78
2023/08/16 04:33:49;;;;;;;3.80;3.50;;;;;;;20.61;100.00;100331.53;4985201;28;20212;-78
2023/08/16 04:36:16;;;;;;;3.90;3.60;;;;;;;20.68;100.00;100319.78;4988877;28;20195;-78
2023/08/16 04:38:41;;;;;;;9.13;3.53;;;;;;;20.75;100.00;100315.91;4985279;28;20201;-78
2023/08/16 04:41:06;;;;;;;4.37;3.73;;;;;;;20.79;100.00;100309.59;4985643;28;20591;-78
2023/08/16 04:43:32;;;;;;;3.80;3.40;;;;;;;20.83;100.00;100311.13;4988207;28;20684;-78
2023/08/16 04:45:57;;;;;;;5.17;3.90;;;;;;;20.88;100.00;100312.66;4982905;28;20292;-78
2023/08/16 04:48:22;;;;;;;3.80;3.50;;;;;;;20.90;100.00;100322.19;4983708;28;20204;-77
2023/08/16 04:50:48;;;;;;;4.10;3.80;;;;;;;20.94;100.00;100334.25;4999052;28;20996;-79
2023/08/16 04:53:13;;;;;;;3.33;3.13;;;;;;;20.96;100.00;100347.31;4980281;28;20228;-77
2023/08/16 04:55:38;;;;;;;3.60;3.30;;;;;;;21.00;100.00;100354.97;4986004;28;20275;-78
2023/08/16 04:58:04;;;;;;;3.20;2.97;;;;;;;21.05;100.00;100359.16;4986059;28;20296;-79
2023/08/16 05:00:29;;;;;;;4.37;3.00;;;;;;;21.09;100.00;100366.81;4998564;28;20194;-77
2023/08/16 05:02:54;;;;;;;4.47;3.57;;;;;;;21.15;100.00;100374.41;4988805;28;20217;-78
2023/08/16 05:05:20;;;;;;;4.00;3.60;;;;;;;21.14;100.00;100366.56;4984949;28;20193;-79
2023/08/16 05:07:45;;;;;;;8.43;4.30;;;;;;;21.05;100.00;100362.63;4985267;28;20265;-77
2023/08/16 05:10:10;;;;;;;4.03;3.73;;;;;;;21.00;100.00;100362.03;4985932;28;20211;-76
2023/08/16 05:12:36;;;;;;;6.43;4.33;;;;;;;20.94;100.00;100363.19;4988042;28;20238;-77
2023/08/16 05:15:01;;;;;;;5.33;4.23;;;;;;;20.88;100.00;100367.91;4987244;28;20324;-79
2023/08/16 05:17:26;;;;;;;6.13;5.53;;;;;;;20.88;100.00;100367.91;4991798;28;20317;-77
2023/08/16 05:19:52;;;;;;;6.03;5.10;;;;;;;20.86;100.00;100373.25;4986267;28;20219;-78
2023/08/16 05:22:19;;;;;;;6.50;5.90;;;;;;;20.86;100.00;100382.00;4985653;28;20196;-79
2023/08/16 05:24:44;;;;;;;10.70;6.93;;;;;;;20.84;100.00;100383.84;4998873;28;20217;-78
2023/08/16 05:27:12;;;;;;;7.10;6.50;;;;;;;20.84;100.00;100389.13;5001424;28;20193;-78
2023/08/16 05:29:40;;;;;;;6.80;6.27;;;;;;;20.84;100.00;100389.13;4989637;28;20196;-79
2023/08/16 05:32:06;;;;;;;6.83;6.23;;;;;;;20.86;100.00;100389.03;4989568;28;20252;-77
2023/08/16 05:34:31;;;;;;;7.43;6.13;;;;;;;20.87;100.00;100393.38;4985116;28;20267;-78
2023/08/16 05:36:56;;;;;;;6.50;5.90;;;;;;;20.89;100.00;100395.91;5000577;28;20232;-78
2023/08/16 05:39:22;;;;;;;6.50;5.90;;;;;;;20.91;100.00;100402.81;4986684;28;20196;-78
2023/08/16 05:41:50;;;;;;;6.30;5.70;;;;;;;20.95;100.00;100400.88;4986880;28;20192;-77
2023/08/16 05:44:16;;;;;;;6.17;5.53;;;;;;;20.94;100.00;100418.44;5000552;28;20219;-78
2023/08/16 05:46:41;;;;;;;6.40;5.80;;;;;;;20.97;100.00;100426.16;4978897;28;20205;-77
2023/08/16 05:49:07;;;;;;;6.00;5.43;;;;;;;21.05;100.00;100430.19;5004020;28;20201;-78
2023/08/16 05:51:33;;;;;;;6.37;5.87;;;;;;;21.15;100.00;100434.06;4999097;28;20189;-78
2023/08/16 05:53:59;;;;;;;6.73;5.43;;;;;;;21.51;100.00;100430.47;4993648;28;20263;-78
2023/08/16 05:56:24;;;;;;;5.60;5.03;;;;;;;22.14;100.00;100439.44;4997908;28;20181;-77
2023/08/16 05:58:49;;;;;;;5.17;4.67;;;;;;;22.33;100.00;100433.97;4986444;28;20181;-77
2023/08/16 06:01:15;;;;;;;5.23;4.50;;;;;;;22.49;100.00;100439.25;4993273;28;20292;-78
2023/08/16 06:03:40;;;;;;;4.73;4.33;;;;;;;22.72;100.00;100437.09;4987084;28;20324;-78
2023/08/16 06:06:06;;;;;;;5.67;4.23;;;;;;;22.93;100.00;100439.41;4991075;28;20196;-78
2023/08/16 06:08:31;;;;;;;5.03;4.50;;;;;;;22.89;100.00;100441.38;4987319;28;20224;-77
2023/08/16 06:10:57;;;;;;;8.77;4.50;;;;;;;22.72;100.00;100442.38;4985054;28;20193;-79
2023/08/16 06:13:22;;;;;;;5.00;4.40;;;;;;;22.31;100.00;100435.84;4985481;28;20222;-77
2023/08/16 06:15:48;;;;;;;6.03;4.60;;;;;;;22.05;100.00;100442.53;4989522;28;20192;-78
2023/08/16 06:18:13;;;;;;;7.73;4.50;;;;;;;21.66;100.00;100446.41;4985970;28;20757;-78
2023/08/16 06:20:39;;;;;;;4.87;4.07;;;;;;;21.84;100.00;100444.56;5003173;28;20311;-75
2023/08/16 06:23:04;;;;;;;4.03;3.63;;;;;;;21.79;100.00;100447.44;4985166;28;20204;-77
2023/08/16 06:25:29;;;;;;;4.30;3.90;;;;;;;21.71;100.00;100447.00;4981018;28;20186;-76
2023/08/16 06:27:55;;;;;;;4.50;4.07;;;;;;;21.37;100.00;100454.03;4986599;28;20255;-77
2023/08/16 06:30:20;;;;;;;5.33;4.03;;;;;;;21.55;100.00;100450.44;4987343;28;20196;-77
2023/08/16 06:32:46;;;;;;;5.40;4.07;;;;;;;21.52;100.00;100453.22;4980114;28;20697;-76
2023/08/16 06:35:11;;;;;;;5.13;4.33;;;;;;;21.57;100.00;100448.53;4983236;28;20296;-77
2023/08/16 06:37:39;;;;;;;5.40;4.43;;;;;;;21.56;100.00;100449.47;4998045;28;20696;-77
2023/08/16 06:40:05;;;;;;;4.60;4.17;;;;;;;21.37;100.00;100446.13;4986463;28;20181;-78
2023/08/16 06:42:32;;;;;;;4.80;4.30;;;;;;;21.51;100.00;100451.53;4979451;28;20564;-76
2023/08/16 06:44:57;;;;;;;3.83;3.43;;;;;;;21.53;100.00;100457.56;4983538;28;20713;-77
2023/08/16 06:47:23;;;;;;;4.50;4.10;;;;;;;21.69;100.00;100449.72;4986601;28;20200;-79
2023/08/16 06:49:48;;;;;;;4.60;4.20;;;;;;;21.73;100.00;100456.53;4981982;28;20190;-77
2023/08/16 06:52:13;;;;;;;5.30;3.93;;;;;;;21.80;100.00;100451.78;4982577;28;20205;-77
2023/08/16 06:54:40;;;;;;;4.47;4.07;;;;;;;21.81;100.00;100447.34;4983159;28;20754;-77
2023/08/16 06:57:05;;;;;;;4.67;4.13;;;;;;;21.93;100.00;100446.72;4981583;28;20189;-76
2023/08/16 06:59:31;;;;;;;5.93;4.07;;;;;;;21.92;100.00;100450.28;4977037;28;20209;-77
2023/08/16 07:01:57;;;;;;;5.30;4.80;;;;;;;21.86;100.00;100446.19;4965718;28;1085748;-77
2023/08/16 07:04:22;;;;;;;4.50;4.10;;;;;;;22.06;100.00;100444.25;4985887;28;20209;-77
2023/08/16 07:06:48;;;;;;;4.80;4.27;;;;;;;22.29;100.00;100447.41;4979898;28;20193;-77
2023/08/16 07:09:13;;;;;;;4.10;3.80;;;;;;;22.70;100.00;100444.25;5002318;28;20209;-77
2023/08/16 07:11:39;;;;;;;3.47;3.17;;;;;;;23.29;100.00;100440.84;4979407;28;20252;-77
2023/08/16 07:14:04;;;;;;;3.90;3.60;;;;;;;23.64;100.00;100440.50;4986138;28;20288;-76
2023/08/16 07:16:31;;;;;;;4.63;3.60;;;;;;;23.75;100.00;100443.34;4983883;28;20661;-77
2023/08/16 07:18:56;;;;;;;3.87;3.53;;;;;;;24.07;100.00;100439.63;4989530;28;20336;-78
2023/08/16 07:21:22;;;;;;;4.73;3.50;;;;;;;24.16;100.00;100438.19;4986835;28;20693;-79
2023/08/16 07:23:47;;;;;;;3.30;3.00;;;;;;;24.56;100.00;100438.28;4986381;28;20219;-78
2023/08/16 07:26:12;;;;;;;3.70;3.40;;;;;;;24.78;100.00;100436.88;4983279;28;20185;-77
2023/08/16 07:28:38;;;;;;;3.40;2.80;;;;;;;25.06;100.00;100438.53;4980715;28;20189;-76
2023/08/16 07:31:03;;;;;;;3.30;2.83;;;;;;;25.16;100.00;100435.25;4999365;28;20194;-78
2023/08/16 07:33:30;;;;;;;3.53;3.23;;;;;;;24.23;100.00;100443.94;4979075;28;20229;-77
2023/08/16 07:36:02;;;;;;;4.23;3.33;;;;;;;24.17;100.00;100448.69;5002465;28;20181;-77
2023/08/16 07:38:28;;;;;;;4.77;3.47;;;;;;;23.57;100.00;100444.47;4982683;28;20611;-78
2023/08/16 07:40:54;;;;;;;3.60;3.17;;;;;;;23.43;100.00;100448.78;4999677;28;20193;-77
2023/08/16 07:43:19;;;;;;;4.07;3.73;;;;;;;23.86;100.00;100439.16;4982733;28;20223;-78
2023/08/16 07:45:45;;;;;;;4.93;3.50;;;;;;;23.83;100.00;100450.78;4983909;28;20217;-78
2023/08/16 07:48:10;;;;;;;5.50;3.47;;;;;;;23.83;100.00;100442.84;4988826;28;20193;-78
2023/08/16 07:50:36;;;;;;;4.20;3.70;;;;;;;24.00;100.00;100440.97;4980351;28;20193;-79
2023/08/16 07:53:02;;;;;;;3.60;3.30;;;;;;;24.31;100.00;100439.03;4990284;28;20336;-78
2023/08/16 07:55:32;;;;;;;5.47;3.53;;;;;;;24.09;100.00;100436.91;4997354;28;20232;-78
2023/08/16 07:57:57;;;;;;;3.60;3.30;;;;;;;24.72;100.00;100437.31;4988378;28;20288;-78
2023/08/16 08:00:23;;;;;;;5.73;3.00;;;;;;;24.90;100.00;100444.00;4988624;28;20199;-79
2023/08/16 08:02:48;;;;;;;4.33;3.37;;;;;;;25.01;100.00;100450.41;4986690;28;20255;-78
2023/08/16 08:05:14;;;;;;;2.83;2.63;;;;;;;25.19;100.00;100448.28;4982679;28;20212;-78
2023/08/16 08:07:40;;;;;;;3.30;2.80;;;;;;;25.40;100.00;100441.53;4982321;28;20185;-78
2023/08/16 08:10:06;;;;;;;4.25;2.65;;;;;;;25.58;100.00;100443.88;4980789;28;20231;-79
2023/08/16 08:12:31;;;;;;;2.90;2.70;;;;;;;25.72;100.00;100448.22;4984086;28;20223;-78
2023/08/16 08:14:57;;;;;;;4.03;2.70;;;;;;;25.59;100.00;100442.06;4983370;28;20217;-78
2023/08/16 08:17:23;;;;;;;3.07;2.87;;;;;;;25.00;100.00;100451.34;4980993;28;20189;-79
2023/08/16 08:19:48;;;;;;;4.37;3.00;;;;;;;24.82;100.00;100446.31;4982678;28;20200;-78
2023/08/16 08:22:13;;;;;;;2.80;2.60;;;;;;;25.31;100.00;100451.91;4983097;28;20247;-78
2023/08/16 08:24:39;;;;;;;3.97;3.10;;;;;;;25.32;100.00;100446.50;4981280;28;20209;-77
2023/08/16 08:27:04;;;;;;;3.47;2.80;;;;;;;25.54;100.00;100440.59;4985793;28;20199;-79
2023/08/16 08:29:29;;;;;;;4.77;3.13;;;;;;;25.56;100.00;100443.16;4979887;28;20209;-76
2023/08/16 08:31:54;;;;;;;3.40;3.10;;;;;;;25.74;100.00;100443.66;4982038;28;20224;-77
2023/08/16 08:34:21;;;;;;;3.50;2.70;;;;;;;25.74;100.00;100434.84;4988394;28;20219;-77
2023/08/16 08:36:49;;;;;;;3.00;2.57;;;;;;;25.46;100.00;100444.72;4987630;28;20281;-78
2023/08/16 08:39:18;;;;;;;3.30;3.00;;;;;;;25.38;100.00;100443.44;4989962;28;20961;-77
2023/08/16 08:41:47;;;;;;;6.67;2.83;;;;;;;25.26;100.00;100444.25;4986452;28;20769;-78
2023/08/16 08:44:14;;;;;;;3.87;3.00;;;;;;;25.53;100.00;100448.66;4980446;28;21336;-80
2023/08/16 08:46:41;;;;;;;2.97;2.63;;;;;;;25.71;100.00;100450.00;4984812;28;20681;-76
2023/08/16 08:49:07;;;;;;;5.23;3.40;;;;;;;25.59;100.00;100448.22;4986042;28;20223;-78
2023/08/16 08:51:35;;;;;;;3.57;3.27;;;;;;;25.84;100.00;100442.03;4978516;28;20228;-78
2023/08/16 08:54:00;;;;;;;4.40;3.40;;;;;;;25.62;100.00;100441.88;4982628;28;20693;-78
2023/08/16 08:56:27;;;;;;;6.00;3.77;;;;;;;25.50;100.00;100439.09;4990530;28;20247;-76
2023/08/16 08:58:56;;;;;;;4.50;3.70;;;;;;;25.48;100.00;100445.47;4985323;28;20191;-77
2023/08/16 09:01:23;;;;;;;3.93;3.50;;;;;;;25.71;100.00;100433.25;4980260;28;20284;-77
2023/08/16 09:03:52;;;;;;;3.60;3.30;;;;;;;25.51;100.00;100439.97;4990243;28;20797;-78
2023/08/16 09:06:17;;;;;;;3.57;3.20;;;;;;;25.48;100.00;100438.38;4982920;28;20251;-79
2023/08/16 09:08:45;;;;;;;4.13;3.73;;;;;;;25.30;100.00;100434.31;4985834;28;20552;-79
2023/08/16 09:11:12;;;;;;;3.60;3.30;;;;;;;25.61;100.00;100440.19;4981397;28;20275;-76
2023/08/16 09:13:37;;;;;;;4.37;3.20;;;;;;;25.83;100.00;100437.69;4984613;28;20770;-78
2023/08/16 09:16:03;;;;;;;3.77;3.37;;;;;;;26.13;100.00;100439.13;4981160;28;20203;-77
2023/08/16 09:18:28;;;;;;;4.53;3.33;;;;;;;25.94;100.00;100447.53;4979946;28;20570;-77
2023/08/16 09:20:54;;;;;;;3.67;3.27;;;;;;;25.96;100.00;100442.09;4985260;28;20665;-78
2023/08/16 09:23:19;;;;;;;3.57;3.20;;;;;;;26.29;100.00;100438.88;4983769;28;20206;-78
2023/08/16 09:25:46;;;;;;;4.70;3.40;;;;;;;26.62;100.00;100436.50;4986380;28;20197;-78
2023/08/16 09:28:12;;;;;;;3.53;3.23;;;;;;;26.69;100.00;100434.22;5002644;28;20780;-80
2023/08/16 09:30:38;;;;;;;3.60;3.30;;;;;;;26.86;100.00;100427.66;4989035;28;20193;-77
2023/08/16 09:33:04;;;;;;;4.80;3.70;;;;;;;26.66;100.00;100422.03;4989767;28;20223;-76
2023/08/16 09:35:30;;;;;;;3.73;3.17;;;;;;;26.78;100.00;100423.75;4982193;28;20185;-78
2023/08/16 09:37:56;;;;;;;5.93;3.60;;;;;;;26.41;100.00;100429.16;4986384;28;20188;-77
2023/08/16 09:40:22;;;;;;;4.40;3.53;;;;;;;26.42;100.00;100435.31;4985234;28;20204;-80
2023/08/16 09:42:47;;;;;;;3.90;3.50;;;;;;;26.77;100.00;100439.81;4981296;28;20197;-78
2023/08/16 09:45:12;;;;;;;4.57;3.73;;;;;;;26.84;100.00;100434.94;4983930;28;20206;-77
2023/08/16 09:47:44;;;;;;;4.43;3.33;;;;;;;26.82;100.00;100432.38;4991257;28;20276;-79
2023/08/16 09:50:10;;;;;;;4.57;3.60;;;;;;;26.88;100.00;100442.53;4992614;28;20189;-77
2023/08/16 09:52:37;;;;;;;5.50;4.03;;;;;;;26.96;100.00;100439.31;4983805;28;20220;-76
2023/08/16 09:55:03;;;;;;;4.50;3.50;;;;;;;26.93;100.00;100431.56;4980511;28;20376;-78
2023/08/16 09:57:29;;;;;;;3.70;3.40;;;;;;;26.85;100.00;100429.50;4983234;28;20189;-78
2023/08/16 09:59:55;;;;;;;4.00;3.70;;;;;;;27.04;100.00;100436.91;4982767;28;20280;-78
2023/08/16 10:02:21;;;;;;;4.20;3.80;;;;;;;27.21;100.00;100421.47;4984691;28;20251;-77
2023/08/16 10:04:46;;;;;;;3.90;3.53;;;;;;;27.19;100.00;100424.25;4985146;28;20293;-77
2023/08/16 10:07:12;;;;;;;5.13;3.90;;;;;;;27.39;100.00;100421.84;4990058;28;20229;-78
2023/08/16 10:09:40;;;;;;;3.77;3.30;;;;;;;27.32;100.00;100413.50;4989431;28;20255;-76
2023/08/16 10:12:06;;;;;;;4.97;3.73;;;;;;;27.23;100.00;100407.09;4990405;28;20236;-77
2023/08/16 10:14:33;;;;;;;5.43;3.40;;;;;;;27.16;100.00;100411.22;5001522;28;20228;-77
2023/08/16 10:17:02;;;;;;;4.77;4.10;;;;;;;27.03;100.00;100402.50;4989235;28;20193;-79
2023/08/16 10:19:33;;;;;;;4.03;3.63;;;;;;;27.10;100.00;100395.72;4985425;28;20280;-77
2023/08/16 10:21:59;;;;;;;5.57;3.80;;;;;;;27.15;100.00;100396.22;4982057;28;21054;-77
2023/08/16 10:24:27;;;;;;;4.60;3.70;;;;;;;26.90;100.00;100389.31;4985398;28;20283;-76
2023/08/16 10:26:56;;;;;;;5.80;4.37;;;;;;;26.71;100.00;100397.78;4983735;28;20319;-76
2023/08/16 10:29:23;;;;;;;4.10;3.70;;;;;;;26.61;100.00;100397.63;4985796;28;21878;-77
2023/08/16 10:31:52;;;;;;;4.27;3.87;;;;;;;27.05;100.00;100392.59;4983205;28;20177;-76
2023/08/16 10:34:21;;;;;;;5.03;3.53;;;;;;;27.36;100.00;100399.03;4986964;28;20213;-79
2023/08/16 10:36:47;;;;;;;3.73;3.40;;;;;;;27.35;100.00;100394.69;4999494;28;21112;-78
2023/08/16 10:39:22;;;;;;;4.13;3.73;;;;;;;27.15;100.00;100396.22;4987943;28;20189;-77
2023/08/16 10:41:50;;;;;;;4.73;4.20;;;;;;;27.63;100.00;100389.88;4982426;28;20189;-78
2023/08/16 10:44:23;;;;;;;5.70;4.00;;;;;;;27.47;100.00;100389.38;4986337;28;20648;-77
2023/08/16 10:46:50;;;;;;;4.20;3.90;;;;;;;28.12;100.00;100389.56;4989509;28;20216;-77
2023/08/16 10:49:16;;;;;;;5.10;3.60;;;;;;;28.20;97.70;100395.13;4988485;28;20662;-77
2023/08/16 10:51:46;;;;;;;4.00;3.70;;;;;;;28.14;97.65;100388.47;4984966;28;20220;-76
2023/08/16 10:54:11;;;;;;;6.33;4.20;;;;;;;28.14;99.18;100384.97;4992826;28;20208;-77
2023/08/16 10:56:48;;;;;;;4.33;3.90;;;;;;;28.27;98.44;100380.34;4982892;28;20245;-77
2023/08/16 10:59:14;;;;;;;6.57;3.80;;;;;;;28.16;97.46;100371.53;4998971;28;20188;-78
2023/08/16 11:01:53;;;;;;;4.53;4.13;;;;;;;27.96;99.41;100366.84;4979948;28;20239;-76
2023/08/16 11:04:19;;;;;;;4.37;4.00;;;;;;;27.81;100.00;100360.97;4983787;28;20684;-78
2023/08/16 11:06:45;;;;;;;5.20;4.23;;;;;;;28.28;100.00;100359.91;4983548;28;20284;-76
2023/08/16 11:09:11;;;;;;;4.77;3.87;;;;;;;28.18;100.00;100362.47;4989427;28;20276;-75
2023/08/16 11:11:44;;;;;;;4.70;4.23;;;;;;;28.11;100.00;100366.59;4991170;28;20212;-76
2023/08/16 11:14:09;;;;;;;5.10;4.20;;;;;;;28.14;100.00;100363.69;5003555;28;20209;-77